createdAt,value
2019-03-30T00:04:31.680Z,14.37
2019-03-30T00:09:33.968Z,13.70
2019-03-30T00:14:36.256Z,13.83
2019-03-30T00:19:38.568Z,13.93
2019-03-30T00:24:40.974Z,14.20
2019-03-30T00:29:43.251Z,13.23
2019-03-30T00:34:45.538Z,13.80
2019-03-30T00:39:47.999Z,13.43
2019-03-30T00:44:50.301Z,14.53
2019-03-30T00:49:52.576Z,13.63
2019-03-30T00:54:54.875Z,14.27
2019-03-30T00:59:57.481Z,16.87
2019-03-30T01:04:59.756Z,16.90
2019-03-30T01:10:02.212Z,16.57
2019-03-30T01:15:06.193Z,17.07
2019-03-30T01:20:08.651Z,15.70
2019-03-30T01:25:11.806Z,16.93
2019-03-30T01:30:23.010Z,16.50
2019-03-30T01:35:18.455Z,17.40
2019-03-30T01:40:20.972Z,17.50
2019-03-30T01:45:23.317Z,13.97
2019-03-30T01:50:25.609Z,14.23
2019-03-30T01:55:27.892Z,17.83
2019-03-30T02:00:30.340Z,15.60
2019-03-30T02:05:32.639Z,17.30
2019-03-30T02:10:39.196Z,15.47
2019-03-30T02:15:41.621Z,14.40
2019-03-30T02:20:45.445Z,13.87
2019-03-30T02:25:47.749Z,13.20
2019-03-30T02:30:50.015Z,12.47
2019-03-30T02:35:52.379Z,12.30
2019-03-30T02:40:54.655Z,11.83
2019-03-30T02:45:56.992Z,11.97
2019-03-30T02:50:59.281Z,11.80
2019-03-30T02:56:01.576Z,11.73
2019-03-30T03:01:03.843Z,12.20
2019-03-30T03:06:06.157Z,11.83
2019-03-30T03:11:08.499Z,11.47
2019-03-30T03:16:10.785Z,12.80
2019-03-30T03:21:13.055Z,12.20
2019-03-30T03:26:15.986Z,11.13
2019-03-30T03:31:18.575Z,11.77
2019-03-30T03:36:20.853Z,11.23
2019-03-30T03:41:23.128Z,12.10
2019-03-30T03:46:25.419Z,11.90
2019-03-30T03:51:28.697Z,11.93
2019-03-30T03:56:32.249Z,12.23
2019-03-30T04:01:35.091Z,12.20
2019-03-30T04:06:38.555Z,11.43
2019-03-30T04:11:42.370Z,11.73
2019-03-30T04:16:44.805Z,11.83
2019-03-30T04:21:47.118Z,12.27
2019-03-30T04:26:49.567Z,12.37
2019-03-30T04:31:51.884Z,11.63
2019-03-30T04:36:54.212Z,12.23
2019-03-30T04:41:57.442Z,12.47
2019-03-30T04:46:59.720Z,12.30
2019-03-30T04:52:02.011Z,13.03
2019-03-30T04:57:04.295Z,12.50
2019-03-30T05:02:06.586Z,12.03
2019-03-30T05:07:08.920Z,12.20
2019-03-30T05:12:11.180Z,13.20
2019-03-30T05:17:13.479Z,12.83
2019-03-30T05:22:16.731Z,12.83
2019-03-30T05:27:19.402Z,13.60
2019-03-30T05:32:21.687Z,13.00
2019-03-30T05:37:23.995Z,12.17
2019-03-30T05:42:26.276Z,12.63
2019-03-30T05:47:28.564Z,12.87
2019-03-30T05:52:30.837Z,13.23
2019-03-30T05:57:33.175Z,13.70
2019-03-30T06:02:35.591Z,14.80
2019-03-30T06:07:37.907Z,12.67
2019-03-30T06:12:40.152Z,13.77
2019-03-30T06:17:42.901Z,13.13
2019-03-30T06:22:45.265Z,13.27
2019-03-30T06:27:47.545Z,12.80
2019-03-30T06:32:49.844Z,14.20
2019-03-30T06:37:52.111Z,13.90
2019-03-30T06:42:54.545Z,13.57
2019-03-30T06:47:56.829Z,13.77
2019-03-30T06:52:59.445Z,13.40
2019-03-30T06:58:01.757Z,14.07
2019-03-30T07:03:04.612Z,13.47
2019-03-30T07:08:08.462Z,13.63
2019-03-30T07:13:10.790Z,13.37
2019-03-30T07:18:13.851Z,13.17
2019-03-30T07:23:16.425Z,11.90
2019-03-30T07:28:18.722Z,12.70
2019-03-30T07:33:20.994Z,12.90
2019-03-30T07:38:23.376Z,12.05
2019-03-30T07:43:25.649Z,12.37
2019-03-30T07:48:27.995Z,11.95
2019-03-30T07:53:43.558Z,11.95
2019-03-30T07:58:34.386Z,11.63
2019-03-30T08:03:36.699Z,11.08
2019-03-30T08:08:39.001Z,11.00
2019-03-30T08:13:41.312Z,9.68
2019-03-30T08:18:43.568Z,9.43
2019-03-30T08:23:46.222Z,10.40
2019-03-30T08:28:48.591Z,9.23
2019-03-30T08:33:51.846Z,10.63
2019-03-30T08:38:54.172Z,10.43
2019-03-30T08:43:56.614Z,10.32
2019-03-30T08:48:58.897Z,9.58
2019-03-30T08:54:01.163Z,11.20
2019-03-30T08:59:03.441Z,9.30
2019-03-30T09:04:05.747Z,9.18
2019-03-30T09:09:08.227Z,10.58
2019-03-30T09:14:10.525Z,10.53
2019-03-30T09:19:12.860Z,9.85
2019-03-30T09:24:15.290Z,10.43
2019-03-30T09:29:17.867Z,10.08
2019-03-30T09:34:20.190Z,10.40
2019-03-30T09:39:22.486Z,10.40
2019-03-30T09:44:25.110Z,9.85
2019-03-30T09:49:27.387Z,10.15
2019-03-30T09:54:30.016Z,10.48
2019-03-30T09:59:32.370Z,10.85
2019-03-30T10:04:34.665Z,10.95
2019-03-30T10:09:36.939Z,10.68
2019-03-30T10:14:39.245Z,11.43
2019-03-30T10:19:41.555Z,11.45
2019-03-30T10:24:44.151Z,11.53
2019-03-30T10:29:46.517Z,11.35
2019-03-30T10:34:48.881Z,11.48
2019-03-30T10:39:51.273Z,10.80
2019-03-30T10:44:53.578Z,12.90
2019-03-30T10:49:55.868Z,11.33
2019-03-30T10:54:58.160Z,12.15
2019-03-30T11:00:00.599Z,9.35
2019-03-30T11:05:03.136Z,12.70
2019-03-30T11:10:06.340Z,12.45
2019-03-30T11:15:08.820Z,12.55
2019-03-30T11:20:11.335Z,12.68
2019-03-30T11:25:13.728Z,10.05
2019-03-30T11:30:16.107Z,11.57
2019-03-30T11:35:18.658Z,11.68
2019-03-30T11:40:21.023Z,10.90
2019-03-30T11:45:23.845Z,10.50
2019-03-30T11:50:26.184Z,13.32
2019-03-30T11:55:28.534Z,12.03
2019-03-30T12:00:31.239Z,11.12
2019-03-30T12:05:33.575Z,12.50
2019-03-30T12:10:35.882Z,8.33
2019-03-30T12:15:38.258Z,7.50
2019-03-30T12:20:41.051Z,8.00
2019-03-30T12:25:43.305Z,6.85
2019-03-30T12:30:45.645Z,5.55
2019-03-30T12:35:47.946Z,5.85
2019-03-30T12:40:50.358Z,10.30
2019-03-30T12:45:53.234Z,3.83
2019-03-30T12:50:55.604Z,5.15
2019-03-30T12:55:58.215Z,6.97
2019-03-30T13:01:00.589Z,4.20
2019-03-30T13:06:02.993Z,7.58
2019-03-30T13:11:05.317Z,8.30
2019-03-30T13:16:07.610Z,7.20
2019-03-30T13:21:10.576Z,5.62
2019-03-30T13:26:12.880Z,5.75
2019-03-30T13:31:15.239Z,7.80
2019-03-30T13:36:17.716Z,5.10
2019-03-30T13:41:19.972Z,4.85
2019-03-30T13:46:22.242Z,5.28
2019-03-30T13:51:24.612Z,5.62
2019-03-30T13:56:27.428Z,5.90
2019-03-30T14:01:29.702Z,6.10
2019-03-30T14:06:32.016Z,8.38
2019-03-30T14:11:34.410Z,4.85
2019-03-30T14:16:36.672Z,4.80
2019-03-30T14:21:38.966Z,4.10
2019-03-30T14:26:41.266Z,4.33
2019-03-30T14:31:43.650Z,5.15
2019-03-30T14:36:46.140Z,4.95
2019-03-30T14:41:48.485Z,4.90
2019-03-30T14:46:50.797Z,4.95
2019-03-30T14:51:53.086Z,4.80
2019-03-30T14:56:55.391Z,5.20
2019-03-30T15:01:57.775Z,4.40
2019-03-30T15:07:00.172Z,4.42
2019-03-30T15:12:02.488Z,5.42
2019-03-30T15:17:04.903Z,5.35
2019-03-30T15:22:07.279Z,4.90
2019-03-30T15:27:09.656Z,4.08
2019-03-30T15:32:11.923Z,4.72
2019-03-30T15:37:14.478Z,4.75
2019-03-30T15:42:16.770Z,4.50
2019-03-30T15:47:19.020Z,5.45
2019-03-30T15:52:21.380Z,5.08
2019-03-30T15:57:25.354Z,3.77
2019-03-30T16:02:27.706Z,4.67
2019-03-30T16:07:30.016Z,4.72
2019-03-30T16:12:32.421Z,3.95
2019-03-30T16:17:34.706Z,5.35
2019-03-30T16:22:36.984Z,4.72
2019-03-30T16:27:39.698Z,6.72
2019-03-30T16:32:42.239Z,5.10
2019-03-30T16:37:44.518Z,5.45
2019-03-30T16:42:47.273Z,6.10
2019-03-30T16:47:50.542Z,4.97
2019-03-30T16:52:52.812Z,4.42
2019-03-30T16:57:55.107Z,4.40
2019-03-30T17:02:57.401Z,4.83
2019-03-30T17:07:59.665Z,4.53
2019-03-30T17:13:01.973Z,5.40
2019-03-30T17:18:04.342Z,7.00
2019-03-30T17:23:06.695Z,12.00
2019-03-30T17:28:09.075Z,10.93
2019-03-30T17:33:11.395Z,11.03
2019-03-30T17:38:13.710Z,8.15
2019-03-30T17:43:16.042Z,5.00
2019-03-30T17:48:18.355Z,6.75
2019-03-30T17:53:21.094Z,6.62
2019-03-30T17:58:23.498Z,4.70
2019-03-30T18:03:25.749Z,5.08
2019-03-30T18:08:28.037Z,4.95
2019-03-30T18:13:30.316Z,8.03
2019-03-30T18:18:32.612Z,6.67
2019-03-30T18:23:34.937Z,6.15
2019-03-30T18:28:37.511Z,13.30
2019-03-30T18:33:39.804Z,10.65
2019-03-30T18:38:42.377Z,15.05
2019-03-30T18:43:44.797Z,11.90
2019-03-30T18:48:47.171Z,12.28
2019-03-30T18:53:49.898Z,9.73
2019-03-30T18:58:52.422Z,10.58
2019-03-30T19:03:54.977Z,8.67
2019-03-30T19:08:57.542Z,11.07
2019-03-30T19:14:00.314Z,12.47
2019-03-30T19:19:02.710Z,14.13
2019-03-30T19:24:05.223Z,11.87
2019-03-30T19:29:07.924Z,13.90
2019-03-30T19:34:10.390Z,13.97
2019-03-30T19:39:13.135Z,22.90
2019-03-30T19:44:15.453Z,11.93
2019-03-30T19:49:17.907Z,13.03
2019-03-30T19:54:20.942Z,12.73
2019-03-30T19:59:23.404Z,16.70
2019-03-30T20:04:26.101Z,14.87
2019-03-30T20:09:28.657Z,14.23
2019-03-30T20:14:31.242Z,12.07
2019-03-30T20:19:33.571Z,9.90
2019-03-30T20:24:36.192Z,9.90
2019-03-30T20:29:38.496Z,12.20
2019-03-30T20:34:40.906Z,11.97
2019-03-30T20:39:43.239Z,10.43
2019-03-30T20:44:45.547Z,11.73
2019-03-30T20:49:48.031Z,9.77
2019-03-30T20:54:50.372Z,12.37
2019-03-30T20:59:52.773Z,12.03
2019-03-30T21:04:55.188Z,11.67
2019-03-30T21:09:57.570Z,11.37
2019-03-30T21:14:59.990Z,9.70
2019-03-30T21:20:02.366Z,10.07
2019-03-30T21:25:05.297Z,11.17
2019-03-30T21:30:08.346Z,12.63
2019-03-30T21:35:10.742Z,11.30
2019-03-30T21:40:13.133Z,8.83
2019-03-30T21:45:15.470Z,9.67
2019-03-30T21:50:17.877Z,8.60
2019-03-30T21:55:20.290Z,8.73
2019-03-30T22:00:35.700Z,8.70
2019-03-30T22:05:38.112Z,9.63
2019-03-30T22:10:43.326Z,9.90
2019-03-30T22:15:45.791Z,8.90
2019-03-30T22:20:48.082Z,10.83
2019-03-30T22:25:50.761Z,13.63
2019-03-30T22:30:53.146Z,16.93
2019-03-30T22:35:55.442Z,11.13
2019-03-30T22:40:57.801Z,9.07
2019-03-30T22:46:00.092Z,10.70
2019-03-30T22:51:02.395Z,9.53
2019-03-30T22:56:04.694Z,12.83
2019-03-30T23:01:08.631Z,10.73
2019-03-30T23:06:11.171Z,10.07
2019-03-30T23:11:13.465Z,9.47
2019-03-30T23:16:15.745Z,10.33
2019-03-30T23:21:18.119Z,10.47
2019-03-30T23:26:20.540Z,8.40
2019-03-30T23:31:22.905Z,8.43
2019-03-30T23:36:25.250Z,7.90
2019-03-30T23:41:29.220Z,8.73
2019-03-30T23:46:31.529Z,8.40
2019-03-30T23:51:33.935Z,9.03
2019-03-30T23:56:36.225Z,9.53
